Time;durP1;ratioP1;P1;durP2;ratioP2;P2;SDS_P1;SDS_P2;PMS_P1;PMS_P2;Temp;Humidity;BMP_temperature;BMP_pressure;BME280_temperature;BME280_humidity;BME280_pressure;Samples;Min_cycle;Max_cycle;Signal;HPM_P1;HPM_P2
2022/07/30 00:01:29;;;;;;;4.30;3.33;;;23.00;75.60;;;23.20;47.51;98646.25;5040865;27;113949;-69
2022/07/30 00:03:55;;;;;;;3.40;3.10;;;22.90;76.70;;;23.09;48.25;98654.72;5041343;27;123914;-70
2022/07/30 00:06:22;;;;;;;3.03;2.73;;;22.80;77.40;;;23.00;48.42;98654.28;5043648;27;123600;-70
2022/07/30 00:08:48;;;;;;;7.53;3.70;;;22.70;77.80;;;22.92;48.80;98661.91;5035206;27;114996;-70
2022/07/30 00:11:15;;;;;;;5.40;3.57;;;22.70;78.30;;;22.87;48.94;98651.00;5034357;27;113967;-70
2022/07/30 00:13:41;;;;;;;5.80;3.10;;;22.60;78.70;;;22.86;49.17;98655.03;5041043;27;123425;-70
2022/07/30 00:16:08;;;;;;;4.67;3.33;;;22.60;79.20;;;22.84;49.57;98655.44;5043676;27;123489;-70
2022/07/30 00:18:35;;;;;;;4.10;3.00;;;22.50;79.40;;;22.78;49.69;98656.19;5043965;27;114179;-70
2022/07/30 00:21:01;;;;;;;3.70;3.40;;;22.50;79.70;;;22.72;50.05;98667.84;5044922;27;114037;-69
2022/07/30 00:23:28;;;;;;;4.40;3.77;;;22.40;80.00;;;22.70;50.39;98659.03;5036515;27;124108;-70
2022/07/30 00:25:54;;;;;;;4.93;3.33;;;22.40;80.30;;;22.69;50.62;98665.84;5034481;27;123934;-70
2022/07/30 00:28:21;;;;;;;8.43;4.27;;;22.40;80.70;;;22.66;50.62;98665.84;5043487;27;113442;-70
2022/07/30 00:30:47;;;;;;;7.30;3.43;;;22.40;81.00;;;22.66;50.72;98668.66;5042961;27;114052;-70
2022/07/30 00:33:15;;;;;;;5.67;4.10;;;22.30;81.30;;;22.66;50.95;98663.03;5030793;27;123056;-70
2022/07/30 00:35:41;;;;;;;5.40;3.73;;;22.30;81.70;;;22.62;51.12;98674.28;5046385;27;123410;-70
2022/07/30 00:38:08;;;;;;;4.93;3.33;;;22.30;81.90;;;22.57;51.11;98665.38;5036637;27;115008;-70
2022/07/30 00:40:34;;;;;;;5.07;4.07;;;22.20;82.10;;;22.52;51.73;98668.59;5045644;27;115359;-70
2022/07/30 00:43:01;;;;;;;7.40;3.80;;;22.20;82.40;;;22.47;51.52;98672.59;5036464;27;123179;-70
2022/07/30 00:45:27;;;;;;;4.33;3.50;;;22.20;82.70;;;22.44;51.77;98668.56;5050335;27;124081;-70
2022/07/30 00:47:54;;;;;;;7.00;3.07;;;22.10;82.80;;;22.44;52.01;98674.19;5045441;27;114786;-70
2022/07/30 00:50:21;;;;;;;5.03;3.60;;;22.10;83.00;;;22.44;51.86;98674.19;5046397;27;113961;-70
2022/07/30 00:52:47;;;;;;;4.57;3.70;;;22.10;83.20;;;22.42;52.18;98670.16;5049521;27;123465;-70
2022/07/30 00:55:15;;;;;;;5.80;3.50;;;22.10;83.30;;;22.42;52.07;98668.16;5047448;27;124212;-71
2022/07/30 00:57:42;;;;;;;3.97;3.23;;;22.00;83.30;;;22.42;52.03;98670.16;5047417;27;114006;-71
2022/07/30 01:00:13;;;;;;;3.00;2.70;;;22.10;83.40;;;22.42;51.60;98668.16;5047580;27;113975;-71
2022/07/30 01:02:39;;;;;;;4.67;3.20;;;22.10;83.40;;;22.42;51.90;98670.97;5041783;27;123978;-71
2022/07/30 01:05:07;;;;;;;4.43;3.30;;;22.00;83.10;;;22.40;51.71;98673.34;5050616;27;124291;-70
2022/07/30 01:07:34;;;;;;;5.20;3.80;;;22.00;83.20;;;22.38;51.76;98675.78;5042663;27;114315;-70
2022/07/30 01:10:02;;;;;;;4.33;3.03;;;22.00;83.40;;;22.36;51.98;98681.00;5039795;27;114215;-70
2022/07/30 01:12:30;;;;;;;4.40;2.80;;;22.00;83.40;;;22.35;51.85;98673.72;5048651;27;124027;-70
2022/07/30 01:14:58;;;;;;;3.17;2.70;;;21.90;83.50;;;22.35;52.11;98682.19;5045855;27;123778;-71
2022/07/30 01:17:25;;;;;;;3.33;3.00;;;22.00;84.30;;;22.38;52.31;98687.03;5042250;27;114300;-70
2022/07/30 01:19:58;;;;;;;4.57;3.10;;;22.00;83.80;;;22.40;52.19;98681.00;5049817;27;113912;-71
2022/07/30 01:22:40;;;;;;;5.27;3.33;;;22.00;84.00;;;22.38;51.75;98677.78;5040659;27;124480;-71
2022/07/30 01:25:19;;;;;;;4.47;2.83;;;22.00;83.80;;;22.37;51.64;98678.97;5041624;27;122144;-69
2022/07/30 01:28:03;;;;;;;3.80;2.70;;;22.00;83.60;;;22.33;51.27;98684.59;5017364;28;115106;-69
2022/07/30 01:30:40;;;;;;;3.57;2.90;;;21.90;83.30;;;22.33;51.62;98683.81;5031635;27;115061;-70
2022/07/30 01:33:11;;;;;;;4.17;3.13;;;21.90;83.20;;;22.30;51.32;98684.56;5046930;27;123971;-70
2022/07/30 01:35:40;;;;;;;3.80;3.20;;;21.90;83.20;;;22.30;51.44;98690.19;5048137;27;126012;-70
2022/07/30 01:38:10;;;;;;;5.10;3.03;;;21.90;83.10;;;22.32;51.63;98682.97;5045794;27;114549;-70
2022/07/30 01:40:38;;;;;;;4.90;3.10;;;21.90;83.10;;;22.30;51.44;98693.84;5029699;27;114253;-70
2022/07/30 01:43:06;;;;;;;5.10;3.03;;;21.90;82.90;;;22.29;51.35;98686.56;5043334;27;124053;-71
2022/07/30 01:45:34;;;;;;;4.63;2.80;;;21.90;82.90;;;22.31;51.12;98689.00;5031030;27;123814;-71
2022/07/30 01:48:04;;;;;;;4.33;3.40;;;21.90;83.00;;;22.33;51.15;98695.88;5017528;27;113399;-71
2022/07/30 01:50:33;;;;;;;2.67;2.43;;;21.90;83.00;;;22.35;51.22;98690.63;5050665;27;113796;-71
2022/07/30 01:53:00;;;;;;;4.50;3.00;;;21.90;83.00;;;22.38;51.24;98700.28;5045760;27;124822;-71
2022/07/30 01:55:35;;;;;;;3.10;2.70;;;21.90;82.90;;;22.38;51.16;98692.69;5031971;27;122984;-71
2022/07/30 01:58:05;;;;;;;3.20;2.90;;;21.90;82.90;;;22.38;51.44;98695.50;5040143;27;115473;-70
2022/07/30 02:00:35;;;;;;;5.10;3.30;;;21.90;83.00;;;22.41;51.27;98696.72;5041147;27;114339;-70
2022/07/30 02:03:04;;;;;;;3.33;2.70;;;22.00;83.00;;;22.43;51.16;98699.91;5039811;27;123836;-70
2022/07/30 02:05:34;;;;;;;3.20;2.67;;;22.00;83.00;;;22.43;51.49;98695.13;5049927;27;123667;-70
2022/07/30 02:08:10;;;;;;;3.30;2.67;;;22.00;83.00;;;22.46;51.42;98694.31;5047160;27;113854;-70
2022/07/30 02:11:11;;;;;;;4.10;2.70;;;22.00;83.10;;;22.45;51.16;98695.50;5044246;27;113885;-70
2022/07/30 02:13:48;;;;;;;3.73;3.10;;;22.00;83.00;;;22.48;51.23;98688.28;5045331;27;124546;-71
2022/07/30 02:16:21;;;;;;;3.97;2.90;;;22.00;83.10;;;22.49;51.07;98685.09;5043115;27;123706;-70
2022/07/30 02:19:07;;;;;;;3.90;2.93;;;22.00;83.10;;;22.50;51.04;98695.13;5035022;27;115230;-70
2022/07/30 02:21:40;;;;;;;2.80;2.47;;;22.00;83.10;;;22.53;51.23;98696.34;5043814;27;114319;-70
2022/07/30 02:24:23;;;;;;;7.37;3.40;;;22.00;82.90;;;22.53;50.87;98695.56;5037013;27;123857;-70
2022/07/30 02:27:02;;;;;;;3.50;3.00;;;22.10;82.90;;;22.49;51.13;98687.09;5034536;27;122884;-71
2022/07/30 02:29:32;;;;;;;3.00;2.70;;;22.00;82.70;;;22.47;50.98;98695.13;5026677;27;114038;-70
2022/07/30 02:32:04;;;;;;;3.37;2.90;;;22.00;82.80;;;22.42;51.13;98696.31;5034786;27;114001;-71
2022/07/30 02:34:35;;;;;;;4.57;2.90;;;22.00;82.80;;;22.40;51.19;98693.06;5044555;27;124472;-70
2022/07/30 02:37:06;;;;;;;3.77;2.93;;;22.00;82.90;;;22.40;51.42;98695.06;5033508;27;125314;-71
2022/07/30 02:39:34;;;;;;;4.13;3.30;;;22.00;83.60;;;22.38;51.15;98698.31;5038923;27;114505;-71
2022/07/30 02:42:02;;;;;;;3.33;3.03;;;22.00;82.80;;;22.36;50.93;98706.34;5028069;27;113714;-70
2022/07/30 02:44:30;;;;;;;2.67;2.43;;;21.90;82.70;;;22.34;51.33;98697.47;5028154;27;123647;-71
2022/07/30 02:46:58;;;;;;;5.93;3.17;;;21.90;82.80;;;22.33;51.18;98707.13;5023813;28;122650;-71
2022/07/30 02:49:28;;;;;;;4.00;2.53;;;21.90;83.00;;;22.32;51.20;98710.31;5048242;27;114219;-71
2022/07/30 02:51:55;;;;;;;3.37;3.03;;;21.90;83.00;;;22.31;51.40;98712.34;5039489;27;113912;-70
2022/07/30 02:54:22;;;;;;;4.67;3.10;;;21.90;83.70;;;22.30;51.45;98716.34;5039719;27;124076;-71
2022/07/30 02:56:50;;;;;;;4.40;2.50;;;21.90;83.20;;;22.28;51.31;98716.75;5030162;27;123380;-71
2022/07/30 02:59:20;;;;;;;3.10;2.80;;;21.80;83.10;;;22.28;51.39;98715.94;5041525;27;114196;-71
2022/07/30 03:01:47;;;;;;;3.43;2.63;;;21.90;83.20;;;22.27;51.57;98720.78;5031188;27;113484;-71
2022/07/30 03:04:18;;;;;;;3.20;2.70;;;21.90;83.40;;;22.28;51.69;98722.38;5048627;27;124431;-70
2022/07/30 03:06:45;;;;;;;3.70;2.67;;;21.80;83.50;;;22.29;51.86;98723.16;5035530;27;123783;-71
2022/07/30 03:09:14;;;;;;;8.33;2.80;;;21.90;83.70;;;22.27;51.49;98725.56;5044722;27;115078;-70
2022/07/30 03:11:42;;;;;;;3.90;3.00;;;21.80;83.60;;;22.26;51.51;98729.59;5047039;27;115100;-71
2022/07/30 03:14:10;;;;;;;3.20;2.90;;;21.90;83.50;;;22.21;51.63;98727.16;5038880;27;123992;-70
2022/07/30 03:16:40;;;;;;;4.23;2.93;;;21.80;83.30;;;22.17;51.59;98726.31;5044301;27;124020;-71
2022/07/30 03:19:08;;;;;;;3.97;2.63;;;21.80;83.20;;;22.13;51.31;98731.88;5039425;27;114071;-71
2022/07/30 03:21:37;;;;;;;3.60;2.97;;;21.80;83.20;;;22.11;51.43;98736.28;5045611;27;113947;-71
2022/07/30 03:24:06;;;;;;;3.50;2.93;;;21.70;83.10;;;22.07;51.71;98739.09;5036773;27;124274;-71
2022/07/30 03:26:35;;;;;;;5.07;3.00;;;21.70;83.10;;;22.06;51.32;98743.09;5029464;27;123426;-71
2022/07/30 03:29:03;;;;;;;4.87;3.07;;;21.70;83.10;;;22.06;51.21;98738.28;5042146;27;114544;-70
2022/07/30 03:31:30;;;;;;;5.23;3.20;;;21.70;83.20;;;22.08;51.22;98739.88;5032370;27;114142;-70
2022/07/30 03:33:57;;;;;;;2.73;2.43;;;21.70;83.10;;;22.06;51.61;98740.28;5031077;27;123154;-70
2022/07/30 03:36:25;;;;;;;4.23;3.27;;;21.60;83.10;;;22.07;51.44;98739.09;5042157;27;124433;-70
2022/07/30 03:38:52;;;;;;;4.03;3.07;;;21.70;83.30;;;22.08;51.42;98739.88;5042276;27;114707;-70
2022/07/30 03:41:19;;;;;;;4.80;3.00;;;21.70;83.40;;;22.09;51.28;98747.16;5047227;27;114169;-70
2022/07/30 03:43:47;;;;;;;3.40;3.10;;;21.70;83.20;;;22.04;51.46;98749.13;5030617;27;123302;-70
2022/07/30 03:46:14;;;;;;;2.93;2.40;;;21.60;83.10;;;22.03;51.27;98750.31;5037131;27;124090;-71
2022/07/30 03:48:41;;;;;;;4.80;2.70;;;21.60;83.10;;;22.03;51.71;98744.69;5042862;27;114328;-71
2022/07/30 03:51:09;;;;;;;3.33;2.93;;;21.60;83.20;;;22.04;51.25;98749.13;5027202;27;113060;-71
2022/07/30 03:53:36;;;;;;;3.57;2.83;;;21.60;83.10;;;22.04;51.48;98757.56;5037258;27;124404;-71
2022/07/30 03:56:03;;;;;;;7.73;3.33;;;21.60;83.10;;;22.03;51.34;98764.41;5037588;27;124221;-76
2022/07/30 03:58:30;;;;;;;6.10;3.10;;;21.60;83.00;;;22.03;51.50;98760.75;5042669;27;115157;-70
2022/07/30 04:00:56;;;;;;;3.93;3.03;;;21.60;82.90;;;22.03;51.08;98766.38;5038297;27;115030;-70
2022/07/30 04:03:29;;;;;;;3.40;2.90;;;21.60;82.80;;;22.02;51.14;98765.56;5030329;27;124074;-71
2022/07/30 04:05:56;;;;;;;2.97;2.33;;;21.60;82.80;;;22.00;51.33;98762.38;5028167;27;123315;-71
2022/07/30 04:08:23;;;;;;;3.73;2.50;;;21.60;82.80;;;22.00;51.30;98764.34;5030510;27;114757;-71
2022/07/30 04:10:50;;;;;;;3.70;3.27;;;21.60;82.90;;;21.98;51.23;98773.19;5037913;27;113951;-70
2022/07/30 04:13:17;;;;;;;3.87;2.70;;;21.50;82.80;;;21.98;51.37;98767.56;5042911;27;123820;-72
2022/07/30 04:15:50;;;;;;;5.00;2.90;;;21.60;82.90;;;21.97;51.12;98770.75;5039776;27;122898;-70
2022/07/30 04:18:19;;;;;;;4.17;2.77;;;21.50;82.80;;;21.97;51.14;98780.00;5030479;27;114015;-71
2022/07/30 04:20:48;;;;;;;5.80;2.63;;;21.60;82.90;;;21.98;51.03;98784.44;5036967;27;114663;-71
2022/07/30 04:23:15;;;;;;;3.60;2.97;;;21.60;82.90;;;22.00;51.10;98782.06;5028575;27;123595;-71
2022/07/30 04:25:43;;;;;;;3.40;2.90;;;21.60;82.90;;;22.01;50.89;98786.47;5032272;27;124459;-72
2022/07/30 04:28:10;;;;;;;5.13;2.97;;;21.60;82.80;;;22.10;51.07;98794.56;5036313;27;114168;-72
2022/07/30 04:30:37;;;;;;;5.70;3.27;;;21.60;83.00;;;22.33;50.66;98793.59;5033644;27;114002;-72
2022/07/30 04:33:04;;;;;;;4.77;3.00;;;21.70;83.10;;;22.44;50.29;98798.06;5029939;27;123910;-72
2022/07/30 04:35:33;;;;;;;3.70;2.83;;;21.70;82.90;;;22.46;50.12;98797.66;5026824;27;123870;-71
2022/07/30 04:38:02;;;;;;;3.80;2.60;;;21.80;82.70;;;22.44;50.21;98802.91;5033147;27;113228;-71
2022/07/30 04:40:30;;;;;;;9.30;6.40;;;21.80;82.50;;;22.41;50.24;98804.50;5027628;27;113924;-71
2022/07/30 04:42:57;;;;;;;8.77;5.80;;;21.80;82.30;;;22.39;50.39;98804.06;5026086;27;123973;-71
2022/07/30 04:45:24;;;;;;;6.43;5.07;;;21.80;82.20;;;22.37;50.31;98803.66;5025918;27;123592;-71
2022/07/30 04:47:52;;;;;;;7.70;4.13;;;21.80;82.00;;;22.35;50.22;98808.06;5025264;27;115336;-71
2022/07/30 04:50:24;;;;;;;4.80;3.43;;;21.80;81.70;;;22.33;49.71;98814.09;5027999;27;114967;-71
2022/07/30 04:52:53;;;;;;;4.60;3.47;;;21.90;81.60;;;22.32;49.80;98815.28;5038249;27;124569;-71
2022/07/30 04:55:21;;;;;;;3.20;2.90;;;21.80;81.40;;;22.32;49.87;98812.47;5034076;27;123811;-71
2022/07/30 04:57:51;;;;;;;3.73;3.20;;;21.90;81.50;;;22.33;49.72;98814.09;5046470;27;114115;-71
2022/07/30 05:00:18;;;;;;;3.10;2.70;;;21.80;81.40;;;22.36;50.03;98815.31;5046491;27;114471;-71
2022/07/30 05:02:48;;;;;;;3.80;2.77;;;21.90;81.40;;;22.38;49.83;98815.72;5046468;27;123439;-71
2022/07/30 05:05:16;;;;;;;5.00;3.80;;;21.90;81.30;;;22.39;49.55;98817.34;5050882;27;123854;-71
2022/07/30 05:07:43;;;;;;;3.00;2.63;;;21.90;81.10;;;22.41;49.57;98821.38;5051340;27;114508;-71
2022/07/30 05:10:13;;;;;;;3.63;2.87;;;21.90;80.90;;;22.42;49.47;98823.00;5045681;27;113749;-71
2022/07/30 05:12:40;;;;;;;5.10;2.73;;;22.00;80.70;;;22.41;49.24;98810.13;5029930;27;124111;-72
2022/07/30 05:15:08;;;;;;;4.13;3.07;;;21.90;80.20;;;22.40;48.84;98814.13;5046974;27;123803;-72
2022/07/30 05:17:36;;;;;;;3.93;2.80;;;21.90;79.90;;;22.38;48.90;98822.19;5051402;27;114006;-72
2022/07/30 05:20:04;;;;;;;2.77;2.53;;;21.90;79.80;;;22.39;49.00;98822.97;5024689;27;113076;-71
2022/07/30 05:22:31;;;;;;;4.73;3.03;;;21.90;79.70;;;22.41;49.14;98827.03;5052207;27;123845;-71
2022/07/30 05:24:58;;;;;;;3.10;2.77;;;21.90;79.80;;;22.45;48.60;98821.41;5049920;27;123779;-71
2022/07/30 05:27:24;;;;;;;6.97;3.00;;;22.00;79.90;;;22.48;48.60;98824.22;5047985;27;114172;-71
2022/07/30 05:29:51;;;;;;;4.80;2.80;;;22.00;79.70;;;22.52;48.62;98831.94;5035236;27;114032;-72
2022/07/30 05:32:18;;;;;;;4.17;2.67;;;22.00;79.70;;;22.56;48.69;98833.53;5039507;27;122963;-71
2022/07/30 05:34:44;;;;;;;6.60;3.23;;;22.00;79.70;;;22.61;48.72;98838.00;5029268;27;124308;-72
2022/07/30 05:37:10;;;;;;;4.20;2.93;;;22.10;79.60;;;22.66;48.44;98832.81;5033689;27;115361;-72
2022/07/30 05:39:37;;;;;;;4.20;2.63;;;22.10;79.50;;;22.72;48.40;98833.25;5042807;27;115075;-71
2022/07/30 05:42:04;;;;;;;4.77;3.00;;;22.10;79.40;;;22.77;48.50;98826.44;5045107;27;123347;-72
2022/07/30 05:44:30;;;;;;;6.60;3.30;;;22.20;79.60;;;22.82;48.18;98832.50;5044502;27;124538;-72
2022/07/30 05:46:57;;;;;;;4.60;3.00;;;22.20;79.50;;;22.86;48.32;98832.50;5045083;27;113191;-72
2022/07/30 05:49:23;;;;;;;5.73;2.77;;;22.30;79.30;;;22.90;47.60;98831.34;5052703;27;113948;-72
2022/07/30 05:51:50;;;;;;;5.00;3.00;;;22.30;78.90;;;22.94;47.59;98831.34;5036229;27;124010;-72
2022/07/30 05:54:16;;;;;;;5.10;3.40;;;22.40;78.60;;;22.96;47.44;98830.97;5037170;27;123600;-71
2022/07/30 05:56:43;;;;;;;3.53;2.70;;;22.40;78.20;;;22.98;47.33;98834.22;5042810;27;113397;-71
2022/07/30 05:59:09;;;;;;;3.90;3.20;;;22.40;77.80;;;23.00;47.23;98831.81;5034140;27;114362;-72
2022/07/30 06:01:36;;;;;;;3.20;2.67;;;22.50;77.70;;;23.03;47.17;98833.84;5049038;27;124325;-71
2022/07/30 06:04:02;;;;;;;4.93;3.00;;;22.50;77.50;;;23.08;47.11;98825.03;5049853;27;123822;-72
2022/07/30 06:06:29;;;;;;;5.30;3.23;;;22.50;77.60;;;23.11;46.81;98835.50;5047580;27;114660;-71
2022/07/30 06:08:55;;;;;;;6.40;3.67;;;22.50;77.30;;;23.17;46.78;98828.28;5050496;27;115053;-72
2022/07/30 06:11:22;;;;;;;4.80;2.80;;;22.60;77.50;;;23.25;46.65;98834.75;5031830;27;124258;-71
2022/07/30 06:13:48;;;;;;;3.80;2.70;;;22.60;77.20;;;23.32;46.16;98838.41;5047395;27;123606;-72
2022/07/30 06:16:15;;;;;;;4.20;3.50;;;22.70;76.70;;;23.38;45.61;98842.44;5039095;27;114198;-72
2022/07/30 06:18:41;;;;;;;3.50;2.73;;;22.80;76.00;;;23.45;45.33;98838.03;5047597;27;113966;-72
2022/07/30 06:21:08;;;;;;;4.67;3.17;;;22.80;75.30;;;23.50;44.79;98846.91;5050242;27;124209;-72
2022/07/30 06:23:34;;;;;;;4.43;2.60;;;22.90;75.10;;;23.59;44.92;98840.91;5043922;27;123836;-71
2022/07/30 06:26:01;;;;;;;5.93;2.90;;;22.90;74.70;;;23.68;44.71;98844.13;5037367;27;115165;-72
2022/07/30 06:28:28;;;;;;;6.50;3.10;;;23.00;74.60;;;23.72;44.04;98847.00;5047468;27;114855;-72
2022/07/30 06:30:54;;;;;;;7.73;3.13;;;23.10;73.90;;;23.76;43.73;98839.34;5048239;27;124061;-72
2022/07/30 06:33:20;;;;;;;6.20;3.60;;;23.10;73.50;;;23.78;43.65;98846.22;5048171;27;123965;-71
2022/07/30 06:35:47;;;;;;;4.00;3.20;;;23.10;72.80;;;23.83;43.53;98845.03;5029301;27;113665;-71
2022/07/30 06:38:14;;;;;;;5.33;3.70;;;23.20;72.80;;;23.90;43.57;98842.19;5037809;27;113815;-71
2022/07/30 06:40:41;;;;;;;5.40;3.40;;;23.30;72.50;;;23.96;42.88;98851.84;5040267;27;124412;-71
2022/07/30 06:43:07;;;;;;;6.80;3.87;;;23.40;72.00;;;24.01;42.52;98842.19;5036623;27;124585;-71
2022/07/30 06:45:33;;;;;;;4.97;3.50;;;23.40;71.30;;;24.05;42.43;98848.66;5043442;27;114219;-71
2022/07/30 06:48:00;;;;;;;7.40;4.17;;;23.40;71.00;;;24.08;42.23;98844.22;5038917;27;114115;-70
2022/07/30 06:50:27;;;;;;;11.70;3.27;;;23.50;70.40;;;24.08;41.88;98847.84;5043747;27;124000;-72
2022/07/30 06:52:54;;;;;;;5.33;3.20;;;23.50;69.90;;;24.08;42.12;98852.69;5035025;27;122787;-71
2022/07/30 06:55:20;;;;;;;3.97;3.00;;;23.50;69.80;;;24.13;41.91;98850.28;5045985;27;113959;-70
2022/07/30 06:57:47;;;;;;;5.20;3.30;;;23.50;69.80;;;24.19;41.90;98854.31;5039293;27;114145;-71
2022/07/30 07:00:14;;;;;;;5.90;3.90;;;23.60;69.80;;;24.28;41.63;98859.53;5037063;27;124519;-71
2022/07/30 07:02:41;;;;;;;4.23;3.03;;;23.60;69.50;;;24.30;41.33;98861.97;5040943;27;124283;-71
2022/07/30 07:05:08;;;;;;;5.50;3.13;;;23.70;69.20;;;24.34;41.73;98851.47;5036768;27;114408;-71
2022/07/30 07:07:35;;;;;;;7.53;3.50;;;23.70;69.00;;;24.36;41.57;98851.88;5033982;27;112352;-71
2022/07/30 07:10:02;;;;;;;4.30;3.53;;;23.70;68.90;;;24.41;41.86;98866.41;5043654;27;125165;-71
2022/07/30 07:12:29;;;;;;;4.47;3.40;;;23.80;69.00;;;24.49;41.39;98857.97;5030233;27;123771;-72
2022/07/30 07:14:55;;;;;;;6.20;3.57;;;23.90;68.70;;;24.56;41.17;98861.59;5031082;27;114970;-72
2022/07/30 07:17:22;;;;;;;8.77;3.80;;;23.90;68.10;;;24.61;41.01;98858.38;5026626;27;114942;-71
2022/07/30 07:19:48;;;;;;;4.33;2.90;;;24.00;68.20;;;24.67;40.73;98865.22;5041788;27;123868;-72
2022/07/30 07:22:15;;;;;;;8.23;3.00;;;24.00;67.50;;;24.69;40.44;98868.44;5037793;27;122655;-72
2022/07/30 07:24:41;;;;;;;7.43;3.70;;;24.10;67.30;;;24.74;40.51;98855.09;5035840;27;114364;-73
2022/07/30 07:27:08;;;;;;;6.50;3.17;;;24.10;67.20;;;24.80;40.49;98864.78;5044024;27;114516;-73
2022/07/30 07:29:34;;;;;;;6.10;3.67;;;24.20;67.30;;;24.87;40.62;98861.94;5029526;27;124112;-73
2022/07/30 07:32:01;;;;;;;7.30;2.97;;;24.20;66.90;;;24.95;40.02;98866.34;5042855;27;123853;-73
2022/07/30 07:34:27;;;;;;;4.73;2.93;;;24.30;66.80;;;25.02;39.85;98865.53;5040992;27;115052;-75
2022/07/30 07:36:54;;;;;;;6.33;3.37;;;24.30;66.10;;;25.07;39.99;98862.31;5044067;27;112923;-74
2022/07/30 07:39:20;;;;;;;5.57;3.50;;;24.40;66.00;;;25.14;39.59;98868.72;5041150;27;123239;-75
2022/07/30 07:41:47;;;;;;;7.23;3.87;;;24.50;65.80;;;25.17;38.65;98867.13;5047022;27;122810;-75
2022/07/30 07:44:13;;;;;;;5.43;3.00;;;24.50;64.20;;;25.20;39.25;98871.16;5043846;27;115167;-76
2022/07/30 07:46:40;;;;;;;5.07;3.20;;;24.50;64.60;;;25.27;38.70;98859.81;5045073;27;113160;-75
2022/07/30 07:49:06;;;;;;;5.87;3.20;;;24.60;63.70;;;25.30;38.23;98862.63;5041755;27;124100;-74
2022/07/30 07:51:34;;;;;;;8.30;3.60;;;24.70;63.20;;;25.34;37.97;98883.22;5031475;27;122814;-74
2022/07/30 07:54:01;;;;;;;5.00;2.90;;;24.70;63.00;;;25.33;38.08;98875.97;5032742;27;114441;-74
2022/07/30 07:56:28;;;;;;;8.90;3.27;;;24.70;62.90;;;25.33;38.42;98863.84;5034378;27;114181;-74
2022/07/30 07:58:54;;;;;;;5.97;2.37;;;24.80;63.00;;;25.36;37.88;98865.84;5034962;27;122862;-74
2022/07/30 08:01:21;;;;;;;3.63;2.93;;;24.80;62.40;;;25.37;37.30;98870.28;5036440;27;123712;-74
2022/07/30 08:03:47;;;;;;;5.07;3.07;;;24.80;61.20;;;25.40;37.39;98869.47;5031892;27;114489;-74
2022/07/30 08:06:14;;;;;;;4.00;3.13;;;24.90;61.50;;;25.44;38.10;98863.78;5038516;27;114420;-74
2022/07/30 08:08:42;;;;;;;3.77;2.90;;;24.80;61.90;;;25.45;37.19;98866.22;5037900;27;124378;-74
2022/07/30 08:11:09;;;;;;;4.30;3.20;;;24.90;61.10;;;25.44;37.53;98870.28;5050089;27;128268;-73
2022/07/30 08:13:35;;;;;;;5.00;2.47;;;24.90;60.60;;;25.47;37.43;98863.78;5039024;27;114197;-74
2022/07/30 08:16:02;;;;;;;3.30;2.50;;;24.90;60.90;;;25.53;37.96;98867.00;5030743;27;112993;-74
2022/07/30 08:18:29;;;;;;;5.60;2.60;;;24.90;61.00;;;25.62;37.24;98861.66;5033894;27;123991;-75
2022/07/30 08:20:55;;;;;;;4.37;2.30;;;25.00;60.40;;;25.67;37.03;98863.28;5035702;27;123988;-75
2022/07/30 08:23:23;;;;;;;7.13;2.77;;;25.10;60.10;;;25.67;36.99;98874.59;5039700;27;114232;-75
2022/07/30 08:25:49;;;;;;;4.47;2.70;;;25.10;59.80;;;25.63;36.78;98868.97;5040607;27;113891;-75
2022/07/30 08:28:16;;;;;;;3.80;2.20;;;25.10;59.60;;;25.63;37.09;98870.97;5031930;27;124233;-74
2022/07/30 08:30:42;;;;;;;4.00;2.20;;;25.10;59.70;;;25.67;36.58;98866.09;5035576;27;123895;-74
2022/07/30 08:33:09;;;;;;;4.37;3.07;;;25.10;59.40;;;25.72;36.02;98869.31;5037401;27;114270;-75
2022/07/30 08:35:35;;;;;;;2.33;2.13;;;25.10;58.70;;;25.79;36.05;98862.78;5035582;27;113322;-74
2022/07/30 08:38:02;;;;;;;4.43;2.40;;;25.20;58.30;;;25.83;36.04;98871.28;5034890;27;124259;-74
2022/07/30 08:40:33;;;;;;;6.30;2.73;;;25.20;58.30;;;25.90;35.52;98866.41;5036093;27;123216;-72
2022/07/30 08:43:04;;;;;;;4.63;2.70;;;25.30;57.70;;;25.95;35.33;98862.31;5030668;27;114665;-74
2022/07/30 08:45:32;;;;;;;3.33;2.13;;;25.30;57.50;;;26.01;35.73;98869.16;5026546;27;114028;-73
2022/07/30 08:48:06;;;;;;;6.07;2.37;;;25.40;57.60;;;26.06;35.43;98867.91;5031135;27;124478;-72
2022/07/30 08:50:33;;;;;;;4.83;2.80;;;25.50;57.00;;;26.11;34.96;98867.44;5044893;27;122684;-73
2022/07/30 08:53:01;;;;;;;5.67;2.80;;;25.50;56.20;;;26.17;35.22;98869.44;5042092;27;115407;-74
2022/07/30 08:55:28;;;;;;;5.47;2.77;;;25.60;56.40;;;26.27;35.00;98873.41;5038695;27;114861;-73
2022/07/30 08:57:54;;;;;;;9.37;2.53;;;25.70;56.40;;;26.31;34.88;98865.69;5031515;27;124261;-73
2022/07/30 09:00:21;;;;;;;3.47;2.60;;;25.70;56.10;;;26.34;34.41;98864.84;5038222;27;123120;-73
2022/07/30 09:02:47;;;;;;;2.97;2.20;;;25.70;55.30;;;26.35;34.56;98872.13;5042937;27;114085;-74
2022/07/30 09:05:14;;;;;;;3.60;2.50;;;25.80;55.50;;;26.39;34.64;98867.25;5041097;27;113419;-74
2022/07/30 09:07:41;;;;;;;2.30;2.07;;;25.80;55.20;;;26.42;34.01;98866.41;5033172;27;124266;-74
2022/07/30 09:10:09;;;;;;;7.63;2.43;;;25.80;55.00;;;26.43;34.00;98870.03;5033755;27;123859;-74
2022/07/30 09:12:38;;;;;;;2.70;2.30;;;25.90;54.40;;;26.44;33.94;98868.81;5033414;27;114761;-74
2022/07/30 09:15:14;;;;;;;6.20;2.50;;;25.20;53.60;;;26.43;33.85;98865.16;5044596;27;114165;-74
2022/07/30 09:17:56;;;;;;;5.20;2.33;;;25.90;54.10;;;26.48;33.96;98868.78;5045464;27;123143;-74
2022/07/30 09:20:28;;;;;;;5.33;2.40;;;26.00;54.60;;;26.49;33.75;98864.72;5043049;27;124213;-74
2022/07/30 09:23:02;;;;;;;4.77;2.80;;;26.00;53.80;;;26.49;33.71;98871.22;5048862;27;113462;-74
2022/07/30 09:25:47;;;;;;;3.03;2.53;;;26.00;53.90;;;26.49;33.61;98871.22;5040062;27;113044;-74
2022/07/30 09:28:14;;;;;;;9.73;3.23;;;26.00;53.20;;;26.48;33.78;98868.78;5048520;27;123807;-74
2022/07/30 09:30:53;;;;;;;3.70;2.60;;;26.00;53.60;;;26.50;33.46;98872.81;5047673;27;124367;-74
2022/07/30 09:33:33;;;;;;;6.37;2.40;;;26.00;53.20;;;26.52;33.51;98866.75;5048032;27;114294;-74
2022/07/30 09:36:00;;;;;;;3.23;2.10;;;26.00;53.50;;;26.54;33.96;98872.81;5040372;27;112965;-74
2022/07/30 09:38:27;;;;;;;3.03;2.03;;;26.00;53.60;;;26.55;33.70;98861.06;5040061;27;123049;-74
2022/07/30 09:40:56;;;;;;;6.33;2.70;;;26.00;53.30;;;26.56;33.35;98857.00;5046098;27;123807;-74
2022/07/30 09:43:22;;;;;;;2.47;2.27;;;26.10;53.10;;;26.57;33.65;98863.47;5043062;27;115188;-73
2022/07/30 09:45:57;;;;;;;3.50;2.50;;;26.10;53.30;;;26.56;33.74;98871.16;5035275;27;114675;-73
2022/07/30 09:48:26;;;;;;;4.83;2.77;;;26.10;53.10;;;26.55;33.38;98863.91;5036978;27;124232;-73
2022/07/30 09:50:54;;;;;;;7.03;2.03;;;26.80;53.30;;;26.55;33.54;98855.38;5035402;27;124007;-73
2022/07/30 09:53:21;;;;;;;2.83;2.00;;;26.10;52.70;;;26.58;33.12;98859.41;5044657;27;114961;-73
2022/07/30 09:55:48;;;;;;;2.10;1.90;;;26.10;52.40;;;26.59;33.12;98855.34;5044910;27;114249;-74
2022/07/30 09:58:16;;;;;;;2.80;2.20;;;26.10;52.50;;;26.55;33.30;98855.38;5039855;27;124080;-73
2022/07/30 10:00:43;;;;;;;2.93;2.20;;;26.10;52.00;;;26.55;32.67;98865.94;5035042;27;123041;-73
2022/07/30 10:03:23;;;;;;;4.50;2.33;;;26.10;51.50;;;26.55;32.53;98866.72;5044243;27;114271;-73
2022/07/30 10:05:53;;;;;;;7.57;2.50;;;26.10;51.50;;;26.57;32.86;98855.78;5041133;27;114043;-73
2022/07/30 10:08:56;;;;;;;2.33;2.13;;;26.10;51.20;;;26.59;32.47;98858.97;5031766;27;124024;-73
2022/07/30 10:11:25;;;;;;;3.97;1.93;;;26.10;51.30;;;26.59;32.66;98841.97;5031762;27;124052;-73
2022/07/30 10:13:58;;;;;;;3.30;1.83;;;26.10;50.90;;;26.60;32.26;98854.94;5030120;27;114167;-73
2022/07/30 10:16:28;;;;;;;2.50;1.90;;;26.20;50.90;;;26.59;32.01;98856.16;5013943;28;113328;-73
2022/07/30 10:18:59;;;;;;;2.33;2.13;;;26.10;50.30;;;26.58;31.87;98859.41;5037567;27;124970;-73